Time;durP1;ratioP1;P1;durP2;ratioP2;P2;SDS_P1;SDS_P2;PMS_P1;PMS_P2;Temp;Humidity;BMP_temperature;BMP_pressure;BME280_temperature;BME280_humidity;BME280_pressure;Samples;Min_cycle;Max_cycle;Signal;HPM_P1;HPM_P2
2024/02/25 00:02:05;;;;;;;;;;;;;;;5.05;100.00;98413.84;5003241;28;19983;-82
2024/02/25 00:04:30;;;;;;;;;;;;;;;5.06;100.00;98410.31;5004285;28;19924;-86
2024/02/25 00:06:55;;;;;;;;;;;;;;;5.09;100.00;98404.94;5004021;28;19917;-85
2024/02/25 00:09:21;;;;;;;;;;;;;;;5.14;100.00;98413.47;5004100;28;19921;-84
2024/02/25 00:11:55;;;;;;;;;;;;;;;5.17;100.00;98412.47;5001124;28;20373;-91
2024/02/25 00:14:21;;;;;;;;;;;;;;;5.19;100.00;98415.88;5004078;28;20036;-83
2024/02/25 00:16:46;;;;;;;;;;;;;;;5.26;100.00;98410.31;5003326;28;20025;-84
2024/02/25 00:19:12;;;;;;;;;;;;;;;5.26;100.00;98418.19;5004124;28;19928;-92
2024/02/25 00:21:37;;;;;;;;;;;;;;;5.30;100.00;98421.53;5003002;28;19917;-82
2024/02/25 00:24:05;;;;;;;;;;;;;;;5.32;100.00;98424.09;5003985;28;19944;-92
2024/02/25 00:26:31;;;;;;;;;;;;;;;5.31;100.00;98419.75;5002621;28;20332;-82
2024/02/25 00:28:59;;;;;;;;;;;;;;;5.33;100.00;98431.03;5004814;28;19918;-85
2024/02/25 00:31:24;;;;;;;;;;;;;;;5.39;100.00;98436.03;5003120;28;19917;-88
2024/02/25 00:33:49;;;;;;;;;;;;;;;5.40;100.00;98432.50;5003340;28;19929;-92
2024/02/25 00:36:31;;;;;;;;;;;;;;;5.43;100.00;98427.94;5004011;28;20429;-93
2024/02/25 00:39:03;;;;;;;;;;;;;;;5.39;100.00;98425.53;5003948;28;20016;-90
2024/02/25 00:41:28;;;;;;;;;;;;;;;5.42;100.00;98423.59;5001435;28;19918;-87
2024/02/25 00:44:14;;;;;;;;;;;;;;;5.41;100.00;98431.59;5003494;28;20426;-93
2024/02/25 00:46:42;;;;;;;;;;;;;;;5.42;100.00;98431.50;5002823;28;20008;-84
2024/02/25 00:49:10;;;;;;;;;;;;;;;5.41;100.00;98429.81;5002355;28;19925;-91
2024/02/25 00:51:35;;;;;;;;;;;;;;;5.49;100.00;98425.97;5004070;28;19918;-91
2024/02/25 00:54:04;;;;;;;;;;;;;;;5.41;100.00;98426.34;5024116;23;20443;-94
2024/02/25 00:56:29;;;;;;;;;;;;;;;5.42;100.00;98425.38;5019660;28;19921;-88
2024/02/25 00:58:54;;;;;;;;;;;;;;;5.43;100.00;98427.09;5023253;28;19987;-86
2024/02/25 01:01:23;;;;;;;;;;;;;;;5.37;100.00;98422.97;5022349;28;19917;-93
2024/02/25 01:03:51;;;;;;;;;;;;;;;5.36;100.00;98426.53;5023015;28;19962;-91
2024/02/25 01:06:17;;;;;;;;;;;;;;;5.37;100.00;98424.75;5021402;28;19996;-85
2024/02/25 01:08:45;;;;;;;;;;;;;;;5.38;100.00;98426.47;5023177;28;20036;-91
2024/02/25 01:11:10;;;;;;;;;;;;;;;5.37;100.00;98424.75;5022285;28;19918;-89
2024/02/25 01:13:47;;;;;;;;;;;;;;;5.37;100.00;98419.50;5020967;28;19967;-90
2024/02/25 01:16:12;;;;;;;;;;;;;;;5.41;100.00;98426.34;5021644;28;19918;-88
2024/02/25 01:18:37;;;;;;;;;;;;;;;5.41;100.00;98419.28;5021921;28;19964;-90
2024/02/25 01:21:03;;;;;;;;;;;;;;;5.41;100.00;98415.81;5022602;28;20360;-89
2024/02/25 01:23:39;;;;;;;;;;;;;;;5.42;100.00;98414.88;5022494;28;20547;-90
2024/02/25 01:26:04;;;;;;;;;;;;;;;5.41;100.00;98418.44;5021080;28;19921;-89
2024/02/25 01:28:30;;;;;;;;;;;;;;;5.40;100.00;98403.59;5021344;28;19918;-88
2024/02/25 01:30:55;;;;;;;;;;;;;;;5.39;100.00;98410.63;5022905;28;19964;-87
2024/02/25 01:33:23;;;;;;;;;;;;;;;5.40;100.00;98404.44;5023039;28;19963;-91
2024/02/25 01:36:19;;;;;;;;;;;;;;;5.42;100.00;98401.75;5152220;23;19926;-94
2024/02/25 01:38:44;;;;;;;;;;;;;;;5.44;100.00;98397.28;4971714;28;20373;-88
2024/02/25 01:41:09;;;;;;;;;;;;;;;5.43;100.00;98398.22;4971038;28;19925;-94
2024/02/25 01:46:35;;;;;;;;;;;;;;;5.48;100.00;98385.72;4968911;28;19970;-94
2024/02/25 01:49:24;;;;;;;;;;;;;;;5.45;100.00;98386.69;4973522;28;19918;-92
2024/02/25 01:51:49;;;;;;;;;;;;;;;5.51;100.00;98384.75;4973577;28;19969;-88
2024/02/25 08:33:21;;;;;;;;;;;;;;;;;;;;;
2024/02/25 08:54:57;;;;;;;;;;;;;;;5.95;100.00;98430.06;4822270;29;19931;-91
2024/02/25 09:04:14;;;;;;;;;;;;;;;5.97;100.00;98430.84;4832974;29;19931;-92
2024/02/25 09:07:00;;;;;;;;;;;;;;;5.96;100.00;98429.13;4830999;29;19925;-92
2024/02/25 09:10:00;;;;;;;;;;;;;;;5.99;100.00;98426.38;4830893;29;20357;-92
2024/02/25 09:15:53;;;;;;;;;;;;;;;6.03;100.00;98419.22;4907158;29;19927;-92
2024/02/25 09:28:54;;;;;;;;;;;;;;;6.07;100.00;98415.50;5511057;23;19926;-89
2024/02/25 09:57:41;;;;;;;;;;;;;;;6.20;100.00;98394.75;5975720;23;19929;-88
2024/02/25 10:00:34;;;;;;;;;;;;;;;;;;;;;
2024/02/25 10:02:59;;;;;;;;;;;;;;;6.26;100.00;98388.34;4992661;28;19921;-91
2024/02/25 10:05:27;;;;;;;;;;;;;;;6.28;100.00;98384.69;4991412;28;20432;-92
2024/02/25 10:08:18;;;;;;;;;;;;;;;6.27;100.00;98382.16;4991066;28;19922;-90
2024/02/25 10:10:46;;;;;;;;;;;;;;;6.29;100.00;98381.16;4994579;28;20021;-91
2024/02/25 10:13:19;;;;;;;;;;;;;;;6.22;100.00;98384.16;4998569;28;20380;-93
2024/02/25 10:16:03;;;;;;;;;;;;;;;6.21;100.00;98375.41;4991113;28;19989;-94
2024/02/25 10:22:16;;;;;;;;;;;;;;;6.30;100.00;98382.88;4922825;29;19918;-94
2024/02/25 10:35:04;;;;;;;;;;;;;;;6.28;100.00;98376.81;5564655;23;19930;-92
2024/02/25 10:37:50;;;;;;;;;;;;;;;6.19;100.00;98366.75;4971903;28;19918;-92
2024/02/25 10:40:59;;;;;;;;;;;;;;;;;;;;;
2024/02/25 10:47:23;;;;;;;;;;;;;;;6.17;100.00;98371.22;4951115;29;19919;-94
2024/02/25 10:50:49;;;;;;;;;;;;;;;;;;;;;
2024/02/25 10:56:40;;;;;;;;;;;;;;;;;;;;;
2024/02/25 11:02:28;;;;;;;;;;;;;;;;;;;;;
2024/02/25 11:04:56;;;;;;;;;;;;;;;6.19;100.00;98350.97;4933149;29;19925;-93
2024/02/25 13:54:48;;;;;;;;;;;;;;;6.41;100.00;98065.78;5169899;23;20021;-85
2024/02/25 13:57:14;;;;;;;;;;;;;;;6.39;100.00;98070.28;4968913;28;20317;-88
2024/02/25 13:59:39;;;;;;;;;;;;;;;6.40;100.00;98069.31;4954175;28;19927;-85
2024/02/25 14:02:05;;;;;;;;;;;;;;;6.37;100.00;98065.09;4953954;28;20289;-85
2024/02/25 14:04:31;;;;;;;;;;;;;;;6.41;100.00;98057.88;4952810;29;19922;-84
2024/02/25 14:06:56;;;;;;;;;;;;;;;6.43;100.00;98056.88;4954053;28;19918;-83
2024/02/25 14:09:21;;;;;;;;;;;;;;;6.43;100.00;98054.25;4952971;29;20053;-90
2024/02/25 14:11:47;;;;;;;;;;;;;;;6.43;100.00;98048.13;4953159;29;19925;-87
2024/02/25 14:14:14;;;;;;;;;;;;;;;6.48;100.00;98043.47;4953855;28;20595;-86
2024/02/25 14:16:39;;;;;;;;;;;;;;;6.46;100.00;98042.69;4953229;29;19919;-89
2024/02/25 14:19:04;;;;;;;;;;;;;;;6.49;100.00;98046.03;4952638;29;20420;-90
2024/02/25 14:21:33;;;;;;;;;;;;;;;6.47;100.00;98039.97;4953822;29;19926;-89
2024/02/25 14:23:58;;;;;;;;;;;;;;;6.48;100.00;98027.69;4952796;28;19918;-92
2024/02/25 14:26:24;;;;;;;;;;;;;;;6.47;100.00;98033.88;4971561;28;19928;-87
2024/02/25 14:28:49;;;;;;;;;;;;;;;6.44;100.00;98023.50;4956989;29;19945;-88
2024/02/25 14:31:15;;;;;;;;;;;;;;;6.47;100.00;98018.09;4957661;29;19986;-86
2024/02/25 14:33:40;;;;;;;;;;;;;;;6.52;100.00;98005.53;4957088;29;19924;-91
2024/02/25 14:36:05;;;;;;;;;;;;;;;6.47;100.00;98002.31;4958636;28;20374;-89
2024/02/25 14:38:31;;;;;;;;;;;;;;;6.47;100.00;97999.66;4958110;29;19927;-92
2024/02/25 14:40:56;;;;;;;;;;;;;;;6.49;100.00;98005.69;4957004;29;19969;-91
2024/02/25 14:43:21;;;;;;;;;;;;;;;6.47;100.00;97991.78;4957839;29;19922;-88
2024/02/25 14:45:47;;;;;;;;;;;;;;;6.47;100.00;97989.16;4957783;29;19919;-91
2024/02/25 14:48:12;;;;;;;;;;;;;;;6.49;100.00;97992.53;4973373;28;19929;-92
2024/02/25 14:50:38;;;;;;;;;;;;;;;6.48;100.00;97990.84;4958384;29;19918;-91
2024/02/25 14:53:04;;;;;;;;;;;;;;;6.48;100.00;97988.22;4956410;29;20412;-92
2024/02/25 14:55:29;;;;;;;;;;;;;;;6.50;100.00;97988.97;4956275;29;19986;-90
2024/02/25 14:57:54;;;;;;;;;;;;;;;6.50;100.00;97986.34;4957683;28;19977;-92
2024/02/25 15:00:20;;;;;;;;;;;;;;;6.50;100.00;97987.19;4957488;29;19941;-91
2024/02/25 15:02:45;;;;;;;;;;;;;;;6.50;100.00;97987.19;4957130;28;20281;-90
2024/02/25 15:05:10;;;;;;;;;;;;;;;6.49;100.00;97982.00;4957401;29;20426;-93
2024/02/25 15:07:40;;;;;;;;;;;;;;;6.47;100.00;97976.00;4956630;29;20002;-92
2024/02/25 15:10:06;;;;;;;;;;;;;;;6.55;100.00;97976.41;4956911;29;19933;-88
2024/02/25 15:12:31;;;;;;;;;;;;;;;6.53;100.00;97970.41;4957210;28;20005;-88
2024/02/25 15:14:57;;;;;;;;;;;;;;;6.52;100.00;97963.41;4957125;29;20420;-92
2024/02/25 15:17:23;;;;;;;;;;;;;;;6.50;100.00;97960.88;4956274;29;20009;-90
2024/02/25 15:19:48;;;;;;;;;;;;;;;6.49;100.00;97960.97;4956905;28;19929;-89
2024/02/25 15:22:13;;;;;;;;;;;;;;;6.45;100.00;97952.41;4956637;29;20458;-87
2024/02/25 15:24:39;;;;;;;;;;;;;;;6.48;100.00;97946.13;4955353;29;19942;-87
2024/02/25 15:27:04;;;;;;;;;;;;;;;6.55;100.00;97944.84;4956710;29;19973;-88
2024/02/25 15:29:29;;;;;;;;;;;;;;;6.53;100.00;97944.91;4956514;29;19974;-86
2024/02/25 15:31:55;;;;;;;;;;;;;;;6.52;100.00;97937.09;4956769;28;19934;-90
2024/02/25 15:34:20;;;;;;;;;;;;;;;5.64;100.00;97936.53;4957404;29;19918;-90
2024/02/25 15:36:46;;;;;;;;;;;;;;;5.21;100.00;97934.31;4970668;28;19964;-89
2024/02/25 15:39:11;;;;;;;;;;;;;;;4.93;100.00;97926.13;4969905;28;19919;-82
2024/02/25 15:41:42;;;;;;;;;;;;;;;4.85;100.00;97927.38;4956680;28;20337;-86
2024/02/25 15:44:08;;;;;;;;;;;;;;;4.68;100.00;97922.09;4956963;28;19930;-93
2024/02/25 15:46:33;;;;;;;;;;;;;;;4.68;100.00;97919.47;4957079;28;19914;-89
2024/02/25 15:48:58;;;;;;;;;;;;;;;4.59;100.00;97917.28;4956431;29;19919;-87
2024/02/25 15:51:24;;;;;;;;;;;;;;;4.46;100.00;97910.00;4956269;28;20433;-87
2024/02/25 15:53:49;;;;;;;;;;;;;;;4.42;100.00;97911.09;4954857;29;19919;-88
2024/02/25 15:56:15;;;;;;;;;;;;;;;4.37;100.00;97913.06;4956022;28;20028;-85
2024/02/25 15:58:40;;;;;;;;;;;;;;;4.30;100.00;97903.81;4956119;29;20369;-85
2024/02/25 16:01:08;;;;;;;;;;;;;;;4.30;100.00;97903.81;4956070;28;19958;-86
2024/02/25 16:03:33;;;;;;;;;;;;;;;4.24;100.00;97904.94;4956035;29;19992;-86
2024/02/25 16:05:58;;;;;;;;;;;;;;;4.10;100.00;97889.00;4956138;29;20382;-93
2024/02/25 16:08:23;;;;;;;;;;;;;;;4.12;100.00;97884.56;4955172;29;19923;-83
2024/02/25 16:10:49;;;;;;;;;;;;;;;4.16;100.00;97886.09;4956108;29;20382;-87
2024/02/25 16:13:17;;;;;;;;;;;;;;;4.12;100.00;97885.41;4956359;29;19915;-88
2024/02/25 16:15:42;;;;;;;;;;;;;;;4.02;100.00;97873.66;4954536;29;20411;-93
2024/02/25 16:18:08;;;;;;;;;;;;;;;3.99;100.00;97886.91;4956098;29;19953;-84
2024/02/25 16:20:38;;;;;;;;;;;;;;;3.98;100.00;97880.78;4956047;29;20453;-88
2024/02/25 16:23:06;;;;;;;;;;;;;;;3.92;100.00;97882.84;4954872;28;19922;-85
2024/02/25 16:25:33;;;;;;;;;;;;;;;3.92;100.00;97881.06;4955762;28;20400;-90
2024/02/25 16:27:58;;;;;;;;;;;;;;;3.86;100.00;97877.88;4954796;29;19942;-85
2024/02/25 16:30:23;;;;;;;;;;;;;;;3.80;100.00;97882.50;4955672;29;19923;-88
2024/02/25 16:32:48;;;;;;;;;;;;;;;3.76;100.00;97878.31;4955827;29;19925;-84
2024/02/25 16:35:14;;;;;;;;;;;;;;;3.81;100.00;97878.09;4955826;29;20014;-93
2024/02/25 16:37:39;;;;;;;;;;;;;;;3.77;100.00;97877.38;4955217;28;19918;-84
2024/02/25 16:40:05;;;;;;;;;;;;;;;3.70;100.00;97870.75;4955884;28;19924;-90
2024/02/25 16:42:30;;;;;;;;;;;;;;;3.72;100.00;97873.25;4958545;28;19957;-89
2024/02/25 16:44:56;;;;;;;;;;;;;;;3.66;100.00;97858.69;4955473;29;19930;-90
2024/02/25 16:47:21;;;;;;;;;;;;;;;3.63;100.00;97856.22;4956733;28;19922;-88
2024/02/25 16:49:46;;;;;;;;;;;;;;;3.62;100.00;97852.75;4954812;28;19918;-91
2024/02/25 16:52:11;;;;;;;;;;;;;;;3.66;100.00;97853.47;4955229;29;19919;-91
2024/02/25 16:54:37;;;;;;;;;;;;;;;3.74;100.00;97846.09;4953595;29;20382;-87
2024/02/25 16:57:03;;;;;;;;;;;;;;;3.96;100.00;97855.59;4954980;28;19926;-88
2024/02/25 16:59:29;;;;;;;;;;;;;;;4.34;100.00;97855.50;4954359;29;19918;-89
2024/02/25 17:01:54;;;;;;;;;;;;;;;4.62;100.00;97852.41;4955025;29;20048;-87
2024/02/25 17:04:24;;;;;;;;;;;;;;;4.83;100.00;97860.13;4953817;29;19919;-90
2024/02/25 17:06:50;;;;;;;;;;;;;;;4.90;100.00;97851.88;4956275;29;19922;-91
2024/02/25 17:09:15;;;;;;;;;;;;;;;5.00;100.00;97859.28;4953705;28;20449;-84
2024/02/25 17:11:40;;;;;;;;;;;;;;;5.08;100.00;97847.47;4955374;29;19925;-90
2024/02/25 17:14:06;;;;;;;;;;;;;;;5.09;100.00;97843.09;4955396;29;19946;-86
2024/02/25 17:16:32;;;;;;;;;;;;;;;5.17;100.00;97843.53;4955080;28;19922;-89
2024/02/25 17:18:57;;;;;;;;;;;;;;;5.22;100.00;97844.13;4953728;29;19950;-83
2024/02/25 17:21:24;;;;;;;;;;;;;;;5.26;100.00;97839.56;4954879;28;19918;-86
2024/02/25 17:23:50;;;;;;;;;;;;;;;5.27;100.00;97836.84;4952126;29;20006;-86
2024/02/25 17:26:22;;;;;;;;;;;;;;;5.29;100.00;97836.78;4955523;28;19966;-92
2024/02/25 17:29:08;;;;;;;;;;;;;;;5.30;100.00;97829.72;4969412;28;19923;-92
2024/02/25 17:31:33;;;;;;;;;;;;;;;5.33;100.00;97833.06;4954401;28;20000;-87
2024/02/25 17:33:59;;;;;;;;;;;;;;;5.37;100.00;97831.13;4954810;28;19918;-93
2024/02/25 17:36:24;;;;;;;;;;;;;;;5.40;100.00;97823.09;4953144;29;20316;-86
2024/02/25 17:38:49;;;;;;;;;;;;;;;5.40;100.00;97818.66;4951594;29;19918;-86
2024/02/25 17:41:15;;;;;;;;;;;;;;;5.40;100.00;97818.66;4954739;29;19927;-86
2024/02/25 17:43:40;;;;;;;;;;;;;;;5.44;100.00;97816.72;4953234;29;19945;-86
2024/02/25 17:46:06;;;;;;;;;;;;;;;5.48;100.00;97813.00;4954651;28;20266;-87
2024/02/25 17:48:33;;;;;;;;;;;;;;;5.53;100.00;97808.34;4955095;28;19925;-85
2024/02/25 17:51:02;;;;;;;;;;;;;;;5.45;100.00;97806.13;4952684;29;19923;-84
2024/02/25 17:53:28;;;;;;;;;;;;;;;5.50;100.00;97805.88;4950566;28;19977;-89
2024/02/25 17:55:59;;;;;;;;;;;;;;;5.51;100.00;97807.59;4952125;28;19929;-88
2024/02/25 17:58:24;;;;;;;;;;;;;;;5.59;100.00;97802.78;4951824;28;19922;-83
2024/02/25 18:00:51;;;;;;;;;;;;;;;5.61;100.00;97802.69;4951358;28;20070;-85
2024/02/25 18:03:45;;;;;;;;;;;;;;;5.61;100.00;97798.28;4951796;28;19923;-94
2024/02/25 18:06:11;;;;;;;;;;;;;;;5.62;100.00;97789.47;4928474;29;19926;-91
2024/02/25 18:08:36;;;;;;;;;;;;;;;5.61;100.00;97787.75;4950558;28;19922;-90
2024/02/25 18:11:01;;;;;;;;;;;;;;;5.63;100.00;97783.31;4951553;28;20434;-87
2024/02/25 18:13:27;;;;;;;;;;;;;;;5.67;100.00;97776.09;4951576;28;19961;-84
2024/02/25 18:15:52;;;;;;;;;;;;;;;5.67;100.00;97772.63;4951999;28;19958;-89
2024/02/25 18:18:17;;;;;;;;;;;;;;;5.68;100.00;97771.66;4952159;28;20370;-91
2024/02/25 18:20:44;;;;;;;;;;;;;;;5.69;100.00;97762.88;4952376;29;20545;-89
2024/02/25 18:23:09;;;;;;;;;;;;;;;5.72;100.00;97746.94;4952336;29;19965;-85
2024/02/25 18:25:35;;;;;;;;;;;;;;;5.70;100.00;97746.19;4952742;29;20357;-86
2024/02/25 18:28:02;;;;;;;;;;;;;;;5.73;100.00;97741.59;4953832;29;20061;-89
2024/02/25 18:30:28;;;;;;;;;;;;;;;5.74;100.00;97739.81;4953706;29;19925;-81
2024/02/25 18:32:54;;;;;;;;;;;;;;;5.71;100.00;97739.97;4953576;29;20001;-86
2024/02/25 18:35:22;;;;;;;;;;;;;;;5.71;100.00;97740.84;4952458;29;19923;-92
2024/02/25 18:37:47;;;;;;;;;;;;;;;5.75;100.00;97731.84;4950861;28;19927;-88
2024/02/25 18:40:16;;;;;;;;;;;;;;;5.78;100.00;97730.81;4952511;29;19919;-87
2024/02/25 18:42:48;;;;;;;;;;;;;;;5.79;100.00;97729.88;4953070;29;20021;-89
2024/02/25 18:45:14;;;;;;;;;;;;;;;5.81;100.00;97725.41;4951061;29;20328;-86
2024/02/25 18:47:41;;;;;;;;;;;;;;;5.82;100.00;97730.56;4951157;29;19927;-87
2024/02/25 18:50:07;;;;;;;;;;;;;;;5.83;100.00;97728.78;4952677;29;19922;-90
2024/02/25 18:52:32;;;;;;;;;;;;;;;5.87;100.00;97718.94;4952883;28;20393;-88
2024/02/25 18:54:57;;;;;;;;;;;;;;;5.91;100.00;97718.69;4951870;29;19988;-85
2024/02/25 18:57:22;;;;;;;;;;;;;;;5.89;100.00;97712.66;4953097;29;19930;-84
2024/02/25 18:59:48;;;;;;;;;;;;;;;5.91;100.00;97705.53;4952046;29;19923;-87
2024/02/25 19:02:14;;;;;;;;;;;;;;;5.85;100.00;97711.13;4952685;28;19938;-85
2024/02/25 19:04:40;;;;;;;;;;;;;;;5.85;100.00;97702.41;4951571;29;19929;-85
2024/02/25 19:07:05;;;;;;;;;;;;;;;5.91;100.00;97696.81;4953853;28;19922;-90
2024/02/25 19:09:33;;;;;;;;;;;;;;;5.93;100.00;97700.19;4952625;28;19919;-85
2024/02/25 19:12:02;;;;;;;;;;;;;;;5.86;100.00;97693.59;4953314;28;19929;-86
2024/02/25 19:14:29;;;;;;;;;;;;;;;6.37;100.00;97691.53;4956738;29;19918;-90
2024/02/25 19:16:56;;;;;;;;;;;;;;;6.06;100.00;97695.94;4954389;29;19926;-89
2024/02/25 19:19:36;;;;;;;;;;;;;;;5.98;100.00;97696.41;4957483;29;19957;-88
2024/02/25 19:22:08;;;;;;;;;;;;;;;5.99;100.00;97694.63;4955105;28;20021;-83
2024/02/25 19:24:34;;;;;;;;;;;;;;;5.95;100.00;97696.56;4954195;29;19929;-91
2024/02/25 19:27:00;;;;;;;;;;;;;;;5.93;100.00;97703.66;4956730;29;20282;-91
2024/02/25 19:29:25;;;;;;;;;;;;;;;5.96;100.00;97695.63;4956374;29;19922;-89
2024/02/25 19:31:53;;;;;;;;;;;;;;;5.90;100.00;97701.19;4957032;29;19918;-92
2024/02/25 19:34:18;;;;;;;;;;;;;;;5.90;100.00;97698.56;4956925;29;20193;-93
2024/02/25 19:36:46;;;;;;;;;;;;;;;5.88;100.00;97694.34;4956438;29;19987;-90
2024/02/25 19:39:11;;;;;;;;;;;;;;;5.88;100.00;97687.31;4955139;29;20285;-92
2024/02/25 19:41:37;;;;;;;;;;;;;;;5.90;100.00;97682.78;4956243;29;19926;-90
2024/02/25 19:44:03;;;;;;;;;;;;;;;5.88;100.00;97692.56;4956411;29;19918;-88
2024/02/25 19:46:28;;;;;;;;;;;;;;;5.86;100.00;97691.81;4953375;29;19922;-86
2024/02/25 19:48:53;;;;;;;;;;;;;;;5.86;100.00;97696.22;4956410;29;19962;-91
2024/02/25 19:51:18;;;;;;;;;;;;;;;5.90;100.00;97698.56;4955588;29;20370;-91
2024/02/25 19:53:44;;;;;;;;;;;;;;;5.89;100.00;97701.28;4955147;29;19957;-90
2024/02/25 19:56:10;;;;;;;;;;;;;;;5.88;100.00;97703.06;4955439;29;19923;-88
2024/02/25 19:58:36;;;;;;;;;;;;;;;5.89;100.00;97701.28;4954371;28;19930;-87
2024/02/25 20:01:01;;;;;;;;;;;;;;;5.91;100.00;97700.28;4956139;28;19938;-89
2024/02/25 20:03:26;;;;;;;;;;;;;;;5.92;100.00;97695.84;4956162;29;19923;-92
2024/02/25 20:05:54;;;;;;;;;;;;;;;5.88;100.00;97682.06;4956194;29;19918;-89
2024/02/25 20:08:19;;;;;;;;;;;;;;;5.90;100.00;97680.16;4952801;29;20724;-88
2024/02/25 20:10:44;;;;;;;;;;;;;;;5.95;100.00;97677.28;4955773;28;19922;-91
2024/02/25 20:13:11;;;;;;;;;;;;;;;5.90;100.00;97674.91;4953751;29;19915;-87
2024/02/25 20:15:36;;;;;;;;;;;;;;;5.89;100.00;97665.34;4955486;28;20482;-86
2024/02/25 20:18:04;;;;;;;;;;;;;;;5.90;100.00;97661.78;4954463;29;20546;-87
2024/02/25 20:20:31;;;;;;;;;;;;;;;5.91;100.00;97663.47;4955756;28;19918;-87
2024/02/25 20:22:56;;;;;;;;;;;;;;;5.90;100.00;97655.69;4953038;28;19969;-88
2024/02/25 20:25:21;;;;;;;;;;;;;;;5.85;100.00;97655.94;4955605;29;19954;-87
2024/02/25 20:27:47;;;;;;;;;;;;;;;5.85;100.00;97652.47;4955307;29;20017;-89
2024/02/25 20:30:14;;;;;;;;;;;;;;;5.86;100.00;97649.75;4954303;29;19966;-86
2024/02/25 20:32:40;;;;;;;;;;;;;;;5.90;100.00;97647.78;4954338;29;19919;-86
2024/02/25 20:35:05;;;;;;;;;;;;;;;5.92;100.00;97644.16;4955783;29;19928;-86
2024/02/25 20:37:41;;;;;;;;;;;;;;;5.84;100.00;97641.13;4955014;28;20297;-88
2024/02/25 20:40:06;;;;;;;;;;;;;;;5.88;100.00;97637.38;4969297;28;19925;-88
2024/02/25 20:42:32;;;;;;;;;;;;;;;5.90;100.00;97627.59;4955211;28;19927;-89
2024/02/25 20:44:57;;;;;;;;;;;;;;;5.91;100.00;97625.84;4954158;29;19919;-88
2024/02/25 20:47:28;;;;;;;;;;;;;;;5.94;100.00;97623.03;4955246;28;19919;-88
2024/02/25 20:49:53;;;;;;;;;;;;;;;5.94;100.00;97615.97;4955120;28;19919;-87
2024/02/25 20:52:21;;;;;;;;;;;;;;;5.91;100.00;97610.91;4953964;29;19918;-87
2024/02/25 20:54:46;;;;;;;;;;;;;;;5.90;100.00;97603.94;4953524;28;20009;-87
2024/02/25 20:57:11;;;;;;;;;;;;;;;5.93;100.00;97593.25;4955102;29;20042;-88
2024/02/25 20:59:36;;;;;;;;;;;;;;;5.89;100.00;97590.88;4953830;29;19942;-87
2024/02/25 21:02:03;;;;;;;;;;;;;;;5.89;100.00;97583.88;4954929;29;19922;-87
2024/02/25 21:04:28;;;;;;;;;;;;;;;5.94;100.00;97583.59;4954285;29;19918;-88
2024/02/25 21:06:54;;;;;;;;;;;;;;;5.89;100.00;97586.50;4954903;29;20282;-88
2024/02/25 21:09:19;;;;;;;;;;;;;;;5.94;100.00;97594.13;4953715;28;20397;-88
2024/02/25 21:11:44;;;;;;;;;;;;;;;5.89;100.00;97577.75;4954736;29;20300;-88
2024/02/25 21:14:10;;;;;;;;;;;;;;;5.88;100.00;97582.16;4954807;29;19922;-87
2024/02/25 21:16:35;;;;;;;;;;;;;;;5.89;100.00;97586.50;4953486;29;20326;-87
2024/02/25 21:19:01;;;;;;;;;;;;;;;5.90;100.00;97585.53;4953418;29;19930;-88
2024/02/25 21:21:26;;;;;;;;;;;;;;;5.85;100.00;97587.59;4954455;29;20009;-87
2024/02/25 21:23:54;;;;;;;;;;;;;;;5.90;100.00;97593.44;4953373;28;19922;-88
2024/02/25 21:26:20;;;;;;;;;;;;;;;5.91;100.00;97584.63;4953202;29;19925;-87
2024/02/25 21:28:45;;;;;;;;;;;;;;;5.89;100.00;97586.50;4954432;28;20021;-88
2024/02/25 21:31:10;;;;;;;;;;;;;;;5.89;100.00;97581.25;4954533;29;19997;-89
2024/02/25 21:33:37;;;;;;;;;;;;;;;5.91;100.00;97578.53;4954713;29;19926;-93
2024/02/25 21:36:03;;;;;;;;;;;;;;;5.90;100.00;97572.41;4952247;28;20001;-86
2024/02/25 21:38:28;;;;;;;;;;;;;;;5.87;100.00;97569.13;4953118;29;19966;-87
2024/02/25 21:40:53;;;;;;;;;;;;;;;5.84;100.00;97564.91;4954506;29;19927;-87
2024/02/25 21:43:19;;;;;;;;;;;;;;;5.87;100.00;97561.22;4954034;29;19919;-86
2024/02/25 21:45:44;;;;;;;;;;;;;;;5.90;100.00;97567.16;4954488;29;20004;-90
2024/02/25 21:48:09;;;;;;;;;;;;;;;5.86;100.00;97573.53;4952741;29;19919;-88
2024/02/25 21:50:37;;;;;;;;;;;;;;;5.85;100.00;97574.47;4952882;29;19923;-87
2024/02/25 21:53:06;;;;;;;;;;;;;;;5.85;100.00;97574.47;4950972;29;19922;-86
2024/02/25 21:55:31;;;;;;;;;;;;;;;5.90;100.00;97577.66;4951878;29;20013;-87
2024/02/25 21:57:57;;;;;;;;;;;;;;;5.89;100.00;97569.84;4954017;29;20005;-87
2024/02/25 22:00:29;;;;;;;;;;;;;;;5.90;100.00;97563.69;4954306;28;20404;-88
2024/02/25 22:02:55;;;;;;;;;;;;;;;5.90;100.00;97545.28;4953325;29;20480;-90
2024/02/25 22:05:20;;;;;;;;;;;;;;;5.85;100.00;97563.94;4952742;29;20013;-90
2024/02/25 22:07:46;;;;;;;;;;;;;;;5.91;100.00;97552.25;4951141;29;20301;-87
2024/02/25 22:10:11;;;;;;;;;;;;;;;5.89;100.00;97552.31;4953933;29;20397;-87
2024/02/25 22:12:37;;;;;;;;;;;;;;;5.88;100.00;97548.00;4953978;29;19925;-85
2024/02/25 22:15:03;;;;;;;;;;;;;;;5.85;100.00;97542.91;4953869;28;20009;-87
2024/02/25 22:17:31;;;;;;;;;;;;;;;5.88;100.00;97545.38;4953955;28;19926;-87
2024/02/25 22:19:57;;;;;;;;;;;;;;;5.87;100.00;97545.47;4953908;28;20346;-85
2024/02/25 22:22:25;;;;;;;;;;;;;;;5.83;100.00;97545.63;4954296;29;19922;-90
2024/02/25 22:24:51;;;;;;;;;;;;;;;5.86;100.00;97549.88;4951591;29;20271;-89
2024/02/25 22:27:17;;;;;;;;;;;;;;;5.84;100.00;97551.75;4953935;28;20541;-87
2024/02/25 22:29:42;;;;;;;;;;;;;;;5.86;100.00;97549.03;4953502;29;20382;-88
2024/02/25 22:32:08;;;;;;;;;;;;;;;5.80;100.00;97550.25;4953785;29;19977;-87
2024/02/25 22:34:36;;;;;;;;;;;;;;;5.85;100.00;97556.06;4953764;29;19918;-87
2024/02/25 22:37:01;;;;;;;;;;;;;;;5.84;100.00;97562.28;4952112;29;19926;-86
2024/02/25 22:39:27;;;;;;;;;;;;;;;5.88;100.00;97569.03;4951297;29;20401;-86
2024/02/25 22:41:52;;;;;;;;;;;;;;;5.87;100.00;97572.59;4953521;29;20057;-85
2024/02/25 22:44:17;;;;;;;;;;;;;;;5.83;100.00;97560.56;4952466;29;20294;-82
2024/02/25 22:46:43;;;;;;;;;;;;;;;5.88;100.00;97563.78;4955116;28;20001;-86
2024/02/25 22:49:08;;;;;;;;;;;;;;;5.89;100.00;97568.09;4957425;29;19987;-87
2024/02/25 22:51:34;;;;;;;;;;;;;;;5.90;100.00;97561.88;4957338;29;19984;-88
2024/02/25 22:54:00;;;;;;;;;;;;;;;5.90;100.00;97564.50;4970787;28;19922;-87
2024/02/25 22:56:25;;;;;;;;;;;;;;;5.91;100.00;97568.84;4957229;28;19926;-87
2024/02/25 22:58:51;;;;;;;;;;;;;;;5.95;100.00;97569.50;4956924;29;19985;-87
2024/02/25 23:01:20;;;;;;;;;;;;;;;5.95;100.00;97562.47;4956054;29;19918;-89
